sensor_id;sensor_type;location;lat;lon;timestamp;pressure;altitude;pressure_sealevel;temperature;humidity
47330;BME280;33060;50.178;7.570;2023-02-17T00:01:23;97633.00;;;7.96;92.48
47330;BME280;33060;50.178;7.570;2023-02-17T00:03:51;97621.66;;;7.96;92.82
47330;BME280;33060;50.178;7.570;2023-02-17T00:06:20;97622.56;;;7.94;93.04
47330;BME280;33060;50.178;7.570;2023-02-17T00:08:47;97625.28;;;7.93;93.48
47330;BME280;33060;50.178;7.570;2023-02-17T00:11:15;97627.06;;;8.10;92.58
47330;BME280;33060;50.178;7.570;2023-02-17T00:13:41;97637.09;;;8.02;93.10
47330;BME280;33060;50.178;7.570;2023-02-17T00:16:11;97639.56;;;8.05;93.16
47330;BME280;33060;50.178;7.570;2023-02-17T00:18:39;97644.28;;;7.98;93.66
47330;BME280;33060;50.178;7.570;2023-02-17T00:21:20;97642.56;;;7.97;94.07
47330;BME280;33060;50.178;7.570;2023-02-17T00:23:47;97644.22;;;8.00;94.21
47330;BME280;33060;50.178;7.570;2023-02-17T00:26:15;97645.91;;;8.01;94.60
47330;BME280;33060;50.178;7.570;2023-02-17T00:28:43;97647.28;;;8.08;94.12
47330;BME280;33060;50.178;7.570;2023-02-17T00:31:14;97652.53;;;8.08;94.45
47330;BME280;33060;50.178;7.570;2023-02-17T00:33:41;97651.78;;;8.06;94.41
47330;BME280;33060;50.178;7.570;2023-02-17T00:36:15;97648.28;;;8.05;94.96
47330;BME280;33060;50.178;7.570;2023-02-17T00:38:43;97641.63;;;8.15;94.54
47330;BME280;33060;50.178;7.570;2023-02-17T00:41:10;97641.91;;;8.11;94.74
47330;BME280;33060;50.178;7.570;2023-02-17T00:43:37;97651.94;;;8.03;95.41
47330;BME280;33060;50.178;7.570;2023-02-17T00:46:03;97648.59;;;7.99;95.91
47330;BME280;33060;50.178;7.570;2023-02-17T00:48:31;97637.19;;;8.00;96.16
47330;BME280;33060;50.178;7.570;2023-02-17T00:50:57;97635.31;;;8.02;96.48
47330;BME280;33060;50.178;7.570;2023-02-17T00:53:25;97628.50;;;7.98;97.03
47330;BME280;33060;50.178;7.570;2023-02-17T00:55:52;97626.72;;;7.99;97.10
47330;BME280;33060;50.178;7.570;2023-02-17T00:58:18;97629.31;;;8.00;97.28
47330;BME280;33060;50.178;7.570;2023-02-17T01:00:45;97622.78;;;8.07;97.42
47330;BME280;33060;50.178;7.570;2023-02-17T01:03:12;97628.59;;;8.14;96.74
47330;BME280;33060;50.178;7.570;2023-02-17T01:05:43;97626.03;;;8.12;97.04
47330;BME280;33060;50.178;7.570;2023-02-17T01:08:14;97622.56;;;8.12;97.44
47330;BME280;33060;50.178;7.570;2023-02-17T01:10:42;97624.09;;;8.16;97.04
47330;BME280;33060;50.178;7.570;2023-02-17T01:13:10;97631.13;;;8.15;97.32
47330;BME280;33060;50.178;7.570;2023-02-17T01:15:38;97636.16;;;8.20;98.11
47330;BME280;33060;50.178;7.570;2023-02-17T01:18:05;97633.75;;;8.15;98.03
47330;BME280;33060;50.178;7.570;2023-02-17T01:20:37;97631.59;;;8.23;98.06
47330;BME280;33060;50.178;7.570;2023-02-17T01:23:05;97627.75;;;8.13;98.76
47330;BME280;33060;50.178;7.570;2023-02-17T01:25:40;97626.22;;;8.09;99.62
47330;BME280;33060;50.178;7.570;2023-02-17T01:28:19;97616.78;;;8.05;100.00
47330;BME280;33060;50.178;7.570;2023-02-17T01:30:47;97603.25;;;8.13;100.00
47330;BME280;33060;50.178;7.570;2023-02-17T01:33:14;97604.25;;;8.10;99.96
47330;BME280;33060;50.178;7.570;2023-02-17T01:35:41;97610.66;;;8.05;100.00
47330;BME280;33060;50.178;7.570;2023-02-17T01:38:07;97604.19;;;8.12;100.00
47330;BME280;33060;50.178;7.570;2023-02-17T01:40:34;97602.94;;;8.02;100.00
47330;BME280;33060;50.178;7.570;2023-02-17T01:43:01;97590.66;;;8.02;100.00
47330;BME280;33060;50.178;7.570;2023-02-17T01:45:34;97587.94;;;8.04;100.00
47330;BME280;33060;50.178;7.570;2023-02-17T01:48:06;97586.53;;;8.14;100.00
47330;BME280;33060;50.178;7.570;2023-02-17T01:50:40;97578.00;;;8.10;100.00
47330;BME280;33060;50.178;7.570;2023-02-17T01:53:09;97553.56;;;8.08;100.00
47330;BME280;33060;50.178;7.570;2023-02-17T01:55:40;97542.91;;;8.11;100.00
47330;BME280;33060;50.178;7.570;2023-02-17T01:58:08;97551.53;;;8.13;100.00
47330;BME280;33060;50.178;7.570;2023-02-17T02:00:36;97546.81;;;8.20;100.00
47330;BME280;33060;50.178;7.570;2023-02-17T02:03:07;97547.66;;;8.20;100.00
47330;BME280;33060;50.178;7.570;2023-02-17T02:05:37;97543.47;;;8.16;100.00
47330;BME280;33060;50.178;7.570;2023-02-17T02:08:04;97536.53;;;8.15;100.00
47330;BME280;33060;50.178;7.570;2023-02-17T02:10:32;97550.28;;;8.20;100.00
47330;BME280;33060;50.178;7.570;2023-02-17T02:12:58;97553.84;;;8.19;100.00
47330;BME280;33060;50.178;7.570;2023-02-17T02:15:30;97544.19;;;8.20;100.00
47330;BME280;33060;50.178;7.570;2023-02-17T02:18:15;97544.28;;;8.18;100.00
47330;BME280;33060;50.178;7.570;2023-02-17T02:28:58;97542.09;;;8.27;100.00
47330;BME280;33060;50.178;7.570;2023-02-17T02:34:25;97533.09;;;8.31;100.00
47330;BME280;33060;50.178;7.570;2023-02-17T02:37:03;97526.25;;;8.28;100.00
47330;BME280;33060;50.178;7.570;2023-02-17T02:39:39;97521.84;;;8.29;100.00
47330;BME280;33060;50.178;7.570;2023-02-17T02:42:11;97522.22;;;8.38;100.00
47330;BME280;33060;50.178;7.570;2023-02-17T02:44:39;97518.91;;;8.35;100.00
47330;BME280;33060;50.178;7.570;2023-02-17T02:47:45;97509.84;;;8.40;100.00
47330;BME280;33060;50.178;7.570;2023-02-17T02:50:20;97520.44;;;8.39;100.00
47330;BME280;33060;50.178;7.570;2023-02-17T02:58:19;97517.63;;;8.42;100.00
47330;BME280;33060;50.178;7.570;2023-02-17T03:06:35;97511.88;;;8.51;100.00
47330;BME280;33060;50.178;7.570;2023-02-17T03:09:08;97517.47;;;8.45;100.00
47330;BME280;33060;50.178;7.570;2023-02-17T03:11:36;97507.22;;;8.40;100.00
47330;BME280;33060;50.178;7.570;2023-02-17T03:14:06;97510.34;;;8.47;100.00
47330;BME280;33060;50.178;7.570;2023-02-17T03:16:35;97510.84;;;8.38;100.00
47330;BME280;33060;50.178;7.570;2023-02-17T03:19:02;97509.91;;;8.39;100.00
47330;BME280;33060;50.178;7.570;2023-02-17T03:21:37;97514.09;;;8.43;100.00
47330;BME280;33060;50.178;7.570;2023-02-17T03:24:05;97506.78;;;8.48;100.00
47330;BME280;33060;50.178;7.570;2023-02-17T03:26:32;97513.16;;;8.44;100.00
47330;BME280;33060;50.178;7.570;2023-02-17T03:28:58;97511.97;;;8.49;100.00
47330;BME280;33060;50.178;7.570;2023-02-17T03:31:26;97508.25;;;8.54;100.00
47330;BME280;33060;50.178;7.570;2023-02-17T03:33:56;97518.84;;;8.52;100.00
47330;BME280;33060;50.178;7.570;2023-02-17T03:36:23;97523.50;;;8.47;100.00
47330;BME280;33060;50.178;7.570;2023-02-17T03:38:50;97531.88;;;8.38;100.00
47330;BME280;33060;50.178;7.570;2023-02-17T03:41:17;97529.25;;;8.38;100.00
47330;BME280;33060;50.178;7.570;2023-02-17T03:43:43;97530.31;;;8.34;100.00
47330;BME280;33060;50.178;7.570;2023-02-17T03:46:11;97528.22;;;8.40;100.00
47330;BME280;33060;50.178;7.570;2023-02-17T03:48:38;97534.44;;;8.39;100.00
47330;BME280;33060;50.178;7.570;2023-02-17T03:51:13;97537.41;;;8.49;100.00
47330;BME280;33060;50.178;7.570;2023-02-17T03:53:40;97530.78;;;8.42;100.00
47330;BME280;33060;50.178;7.570;2023-02-17T03:56:07;97537.44;;;8.32;100.00
47330;BME280;33060;50.178;7.570;2023-02-17T03:58:34;97531.56;;;8.44;100.00
47330;BME280;33060;50.178;7.570;2023-02-17T04:01:01;97523.81;;;8.41;100.00
47330;BME280;33060;50.178;7.570;2023-02-17T04:03:28;97530.47;;;8.31;100.00
47330;BME280;33060;50.178;7.570;2023-02-17T04:05:54;97537.59;;;8.29;100.00
47330;BME280;33060;50.178;7.570;2023-02-17T04:08:22;97529.88;;;8.26;100.00
47330;BME280;33060;50.178;7.570;2023-02-17T04:10:56;97528.44;;;8.20;100.00
47330;BME280;33060;50.178;7.570;2023-02-17T04:13:24;97517.59;;;8.26;100.00
47330;BME280;33060;50.178;7.570;2023-02-17T04:15:51;97515.19;;;8.21;100.00
47330;BME280;33060;50.178;7.570;2023-02-17T04:18:18;97520.63;;;8.18;100.00
47330;BME280;33060;50.178;7.570;2023-02-17T04:20:47;97525.09;;;8.16;100.00
47330;BME280;33060;50.178;7.570;2023-02-17T04:23:16;97529.09;;;8.23;100.00
47330;BME280;33060;50.178;7.570;2023-02-17T04:25:43;97518.59;;;8.23;100.00
47330;BME280;33060;50.178;7.570;2023-02-17T04:28:11;97521.63;;;8.16;100.00
47330;BME280;33060;50.178;7.570;2023-02-17T04:30:38;97516.91;;;8.22;100.00
47330;BME280;33060;50.178;7.570;2023-02-17T04:33:05;97521.06;;;8.27;100.00
47330;BME280;33060;50.178;7.570;2023-02-17T04:35:31;97514.97;;;8.26;100.00
47330;BME280;33060;50.178;7.570;2023-02-17T04:37:58;97514.78;;;8.29;100.00
47330;BME280;33060;50.178;7.570;2023-02-17T04:40:24;97524.00;;;8.20;100.00
47330;BME280;33060;50.178;7.570;2023-02-17T04:42:51;97522.00;;;8.26;100.00
47330;BME280;33060;50.178;7.570;2023-02-17T04:45:18;97520.97;;;8.28;100.00
47330;BME280;33060;50.178;7.570;2023-02-17T04:47:45;97523.09;;;8.21;100.00
47330;BME280;33060;50.178;7.570;2023-02-17T04:50:11;97520.47;;;8.21;100.00
47330;BME280;33060;50.178;7.570;2023-02-17T04:52:38;97520.72;;;8.33;100.00
47330;BME280;33060;50.178;7.570;2023-02-17T04:55:05;97528.69;;;8.31;100.00
47330;BME280;33060;50.178;7.570;2023-02-17T04:57:32;97532.66;;;8.22;100.00
47330;BME280;33060;50.178;7.570;2023-02-17T04:59:59;97529.81;;;8.27;100.00
47330;BME280;33060;50.178;7.570;2023-02-17T05:02:26;97524.78;;;8.22;100.00
47330;BME280;33060;50.178;7.570;2023-02-17T05:04:53;97528.09;;;8.26;100.00
47330;BME280;33060;50.178;7.570;2023-02-17T05:07:20;97525.53;;;8.25;100.00
47330;BME280;33060;50.178;7.570;2023-02-17T05:09:47;97519.13;;;8.30;100.00
47330;BME280;33060;50.178;7.570;2023-02-17T05:12:14;97515.41;;;8.34;100.00
47330;BME280;33060;50.178;7.570;2023-02-17T05:14:40;97504.09;;;8.32;100.00
47330;BME280;33060;50.178;7.570;2023-02-17T05:17:07;97509.38;;;8.32;100.00
47330;BME280;33060;50.178;7.570;2023-02-17T05:19:34;97520.13;;;8.45;100.00
47330;BME280;33060;50.178;7.570;2023-02-17T05:22:01;97522.22;;;8.38;100.00
47330;BME280;33060;50.178;7.570;2023-02-17T05:24:27;97508.41;;;8.35;100.00
47330;BME280;33060;50.178;7.570;2023-02-17T05:26:54;97510.28;;;8.31;100.00
47330;BME280;33060;50.178;7.570;2023-02-17T05:29:20;97523.25;;;8.36;100.00
47330;BME280;33060;50.178;7.570;2023-02-17T05:31:48;97519.69;;;8.37;100.00
47330;BME280;33060;50.178;7.570;2023-02-17T05:34:15;97514.16;;;8.41;100.00
47330;BME280;33060;50.178;7.570;2023-02-17T05:36:42;97515.78;;;8.44;100.00
47330;BME280;33060;50.178;7.570;2023-02-17T05:39:08;97504.44;;;8.43;100.00
47330;BME280;33060;50.178;7.570;2023-02-17T05:41:35;97509.84;;;8.40;100.00
47330;BME280;33060;50.178;7.570;2023-02-17T05:44:02;97501.34;;;8.51;100.00
47330;BME280;33060;50.178;7.570;2023-02-17T05:46:28;97511.28;;;8.46;100.00
47330;BME280;33060;50.178;7.570;2023-02-17T05:48:55;97508.50;;;8.49;100.00
47330;BME280;33060;50.178;7.570;2023-02-17T05:51:22;97507.13;;;8.42;100.00
47330;BME280;33060;50.178;7.570;2023-02-17T05:53:48;97508.56;;;8.47;100.00
47330;BME280;33060;50.178;7.570;2023-02-17T05:56:15;97520.63;;;8.52;100.00
47330;BME280;33060;50.178;7.570;2023-02-17T05:58:41;97522.25;;;8.54;100.00
47330;BME280;33060;50.178;7.570;2023-02-17T06:01:09;97519.00;;;8.49;100.00
47330;BME280;33060;50.178;7.570;2023-02-17T06:03:36;97527.06;;;8.46;100.00
47330;BME280;33060;50.178;7.570;2023-02-17T06:06:03;97525.53;;;8.58;100.00
47330;BME280;33060;50.178;7.570;2023-02-17T06:08:31;97523.09;;;8.55;100.00
47330;BME280;33060;50.178;7.570;2023-02-17T06:10:57;97524.44;;;8.46;100.00
47330;BME280;33060;50.178;7.570;2023-02-17T06:13:24;97528.94;;;8.44;100.00
47330;BME280;33060;50.178;7.570;2023-02-17T06:15:51;97508.34;;;8.52;100.00
47330;BME280;33060;50.178;7.570;2023-02-17T06:18:18;97517.56;;;8.59;100.00
47330;BME280;33060;50.178;7.570;2023-02-17T06:20:45;97528.25;;;8.56;100.00
47330;BME280;33060;50.178;7.570;2023-02-17T06:23:11;97536.59;;;8.64;100.00
47330;BME280;33060;50.178;7.570;2023-02-17T06:25:38;97527.00;;;8.63;100.00
47330;BME280;33060;50.178;7.570;2023-02-17T06:28:05;97531.94;;;8.69;99.93
47330;BME280;33060;50.178;7.570;2023-02-17T06:30:31;97536.41;;;8.67;99.77
47330;BME280;33060;50.178;7.570;2023-02-17T06:32:58;97538.03;;;8.70;99.61
47330;BME280;33060;50.178;7.570;2023-02-17T06:35:25;97541.16;;;8.61;99.91
47330;BME280;33060;50.178;7.570;2023-02-17T06:37:52;97545.22;;;8.66;99.72
47330;BME280;33060;50.178;7.570;2023-02-17T06:40:19;97546.59;;;8.73;98.93
47330;BME280;33060;50.178;7.570;2023-02-17T06:42:45;97543.34;;;8.68;99.39
47330;BME280;33060;50.178;7.570;2023-02-17T06:45:12;97544.28;;;8.67;99.41
47330;BME280;33060;50.178;7.570;2023-02-17T06:47:38;97555.34;;;8.74;99.06
47330;BME280;33060;50.178;7.570;2023-02-17T06:50:06;97544.28;;;8.67;99.86
47330;BME280;33060;50.178;7.570;2023-02-17T06:52:33;97550.56;;;8.65;100.00
47330;BME280;33060;50.178;7.570;2023-02-17T06:54:59;97543.34;;;8.68;100.00
47330;BME280;33060;50.178;7.570;2023-02-17T06:57:26;97541.44;;;8.72;100.00
47330;BME280;33060;50.178;7.570;2023-02-17T06:59:53;97531.56;;;8.75;100.00
47330;BME280;33060;50.178;7.570;2023-02-17T07:02:19;97530.22;;;8.68;100.00
47330;BME280;33060;50.178;7.570;2023-02-17T07:04:46;97532.69;;;8.71;100.00
47330;BME280;33060;50.178;7.570;2023-02-17T07:07:13;97541.84;;;8.80;100.00
47330;BME280;33060;50.178;7.570;2023-02-17T07:09:40;97548.91;;;8.80;100.00
47330;BME280;33060;50.178;7.570;2023-02-17T07:12:06;97546.28;;;8.80;100.00
47330;BME280;33060;50.178;7.570;2023-02-17T07:14:34;97558.81;;;8.74;100.00
47330;BME280;33060;50.178;7.570;2023-02-17T07:17:01;97558.22;;;8.85;100.00
47330;BME280;33060;50.178;7.570;2023-02-17T07:19:28;97553.56;;;8.90;100.00
47330;BME280;33060;50.178;7.570;2023-02-17T07:21:54;97564.31;;;8.86;100.00
47330;BME280;33060;50.178;7.570;2023-02-17T07:24:21;97546.19;;;8.81;100.00
47330;BME280;33060;50.178;7.570;2023-02-17T07:26:48;97551.44;;;8.81;100.00
47330;BME280;33060;50.178;7.570;2023-02-17T07:29:14;97543.63;;;8.80;100.00
47330;BME280;33060;50.178;7.570;2023-02-17T07:31:41;97544.56;;;8.78;100.00
47330;BME280;33060;50.178;7.570;2023-02-17T07:34:08;97539.88;;;8.84;100.00
47330;BME280;33060;50.178;7.570;2023-02-17T07:36:34;97547.13;;;8.80;100.00
47330;BME280;33060;50.178;7.570;2023-02-17T07:39:02;97551.03;;;8.89;100.00
47330;BME280;33060;50.178;7.570;2023-02-17T07:41:29;97554.84;;;8.99;100.00
47330;BME280;33060;50.178;7.570;2023-02-17T07:44:06;97553.38;;;8.93;100.00
47330;BME280;33060;50.178;7.570;2023-02-17T07:46:33;97555.06;;;8.94;100.00
47330;BME280;33060;50.178;7.570;2023-02-17T07:49:00;97553.91;;;9.00;100.00
47330;BME280;33060;50.178;7.570;2023-02-17T07:51:27;97556.84;;;8.94;100.00
47330;BME280;33060;50.178;7.570;2023-02-17T07:53:54;97572.50;;;9.13;100.00
47330;BME280;33060;50.178;7.570;2023-02-17T07:56:21;97557.69;;;9.10;100.00
47330;BME280;33060;50.178;7.570;2023-02-17T07:58:49;97561.28;;;9.09;100.00
47330;BME280;33060;50.178;7.570;2023-02-17T08:01:20;97566.88;;;9.03;100.00
47330;BME280;33060;50.178;7.570;2023-02-17T08:03:48;97563.34;;;9.04;100.00
47330;BME280;33060;50.178;7.570;2023-02-17T08:06:18;97564.00;;;8.92;100.00
47330;BME280;33060;50.178;7.570;2023-02-17T08:08:45;97561.63;;;8.87;100.00
47330;BME280;33060;50.178;7.570;2023-02-17T08:11:31;97564.09;;;8.90;100.00
47330;BME280;33060;50.178;7.570;2023-02-17T08:14:16;97567.22;;;8.97;100.00
47330;BME280;33060;50.178;7.570;2023-02-17T08:16:43;97582.84;;;9.00;100.00
47330;BME280;33060;50.178;7.570;2023-02-17T08:19:10;97583.97;;;8.96;100.00
47330;BME280;33060;50.178;7.570;2023-02-17T08:21:37;97583.44;;;9.05;100.00
47330;BME280;33060;50.178;7.570;2023-02-17T08:24:04;97573.84;;;9.04;100.00
47330;BME280;33060;50.178;7.570;2023-02-17T08:26:31;97573.69;;;9.07;100.00
47330;BME280;33060;50.178;7.570;2023-02-17T08:28:58;97558.72;;;9.07;100.00
47330;BME280;33060;50.178;7.570;2023-02-17T08:31:30;97551.97;;;9.03;100.00
47330;BME280;33060;50.178;7.570;2023-02-17T08:33:59;97556.34;;;9.03;100.00
47330;BME280;33060;50.178;7.570;2023-02-17T08:36:27;97556.63;;;9.14;100.00
47330;BME280;33060;50.178;7.570;2023-02-17T08:38:55;97551.16;;;9.17;100.00
47330;BME280;33060;50.178;7.570;2023-02-17T08:41:25;97558.88;;;9.20;100.00
47330;BME280;33060;50.178;7.570;2023-02-17T08:43:55;97555.81;;;9.28;100.00
47330;BME280;33060;50.178;7.570;2023-02-17T08:46:22;97562.72;;;9.30;100.00
47330;BME280;33060;50.178;7.570;2023-02-17T08:48:49;97559.16;;;9.31;100.00
47330;BME280;33060;50.178;7.570;2023-02-17T08:51:18;97573.06;;;9.33;100.00
47330;BME280;33060;50.178;7.570;2023-02-17T08:53:49;97580.44;;;9.27;100.00
47330;BME280;33060;50.178;7.570;2023-02-17T08:56:16;97568.03;;;9.29;100.00
47330;BME280;33060;50.178;7.570;2023-02-17T08:58:43;97578.66;;;9.27;100.00
47330;BME280;33060;50.178;7.570;2023-02-17T09:01:10;97579.88;;;9.22;100.00
47330;BME280;33060;50.178;7.570;2023-02-17T09:03:38;97574.16;;;9.29;100.00
47330;BME280;33060;50.178;7.570;2023-02-17T09:06:06;97574.16;;;9.29;100.00
47330;BME280;33060;50.178;7.570;2023-02-17T09:08:33;97590.72;;;9.31;100.00
47330;BME280;33060;50.178;7.570;2023-02-17T09:11:00;97582.47;;;9.38;100.00
47330;BME280;33060;50.178;7.570;2023-02-17T09:13:27;97582.41;;;9.39;100.00
47330;BME280;33060;50.178;7.570;2023-02-17T09:15:53;97575.38;;;9.54;100.00
47330;BME280;33060;50.178;7.570;2023-02-17T09:18:21;97583.06;;;9.73;100.00
47330;BME280;33060;50.178;7.570;2023-02-17T09:20:48;97585.91;;;9.70;100.00
47330;BME280;33060;50.178;7.570;2023-02-17T09:23:15;97582.38;;;9.85;100.00
47330;BME280;33060;50.178;7.570;2023-02-17T09:25:42;97590.69;;;9.93;100.00
47330;BME280;33060;50.178;7.570;2023-02-17T09:28:10;97587.75;;;9.98;99.41
47330;BME280;33060;50.178;7.570;2023-02-17T09:30:36;97595.09;;;9.93;99.81
47330;BME280;33060;50.178;7.570;2023-02-17T09:33:03;97598.50;;;9.95;99.51
47330;BME280;33060;50.178;7.570;2023-02-17T09:35:31;97593.31;;;10.07;98.33
47330;BME280;33060;50.178;7.570;2023-02-17T09:37:58;97605.25;;;9.99;99.11
47330;BME280;33060;50.178;7.570;2023-02-17T09:40:42;97591.44;;;9.95;99.22
47330;BME280;33060;50.178;7.570;2023-02-17T09:43:13;97590.38;;;9.98;99.35
47330;BME280;33060;50.178;7.570;2023-02-17T09:45:44;97603.03;;;10.07;98.66
47330;BME280;33060;50.178;7.570;2023-02-17T09:48:16;97598.09;;;10.16;98.40
47330;BME280;33060;50.178;7.570;2023-02-17T09:50:48;97616.00;;;9.96;99.90
47330;BME280;33060;50.178;7.570;2023-02-17T09:53:19;97612.38;;;10.12;99.39
47330;BME280;33060;50.178;7.570;2023-02-17T09:55:51;97627.06;;;10.16;98.42
47330;BME280;33060;50.178;7.570;2023-02-17T10:00:59;97620.59;;;10.22;98.28
47330;BME280;33060;50.178;7.570;2023-02-17T10:03:38;97624.69;;;10.12;99.66
47330;BME280;33060;50.178;7.570;2023-02-17T10:06:16;97617.53;;;10.14;99.69
47330;BME280;33060;50.178;7.570;2023-02-17T10:08:55;97611.72;;;10.09;100.00
47330;BME280;33060;50.178;7.570;2023-02-17T10:11:31;97623.31;;;10.20;99.38
47330;BME280;33060;50.178;7.570;2023-02-17T10:14:07;97626.59;;;10.10;100.00
47330;BME280;33060;50.178;7.570;2023-02-17T10:16:39;97633.34;;;10.14;100.00
47330;BME280;33060;50.178;7.570;2023-02-17T10:19:15;97623.31;;;10.20;99.57
47330;BME280;33060;50.178;7.570;2023-02-17T10:21:57;97624.94;;;10.23;99.71
47330;BME280;33060;50.178;7.570;2023-02-17T10:24:28;97630.38;;;10.20;99.99
47330;BME280;33060;50.178;7.570;2023-02-17T10:32:25;97628.63;;;10.05;100.00
47330;BME280;33060;50.178;7.570;2023-02-17T10:40:19;97603.69;;;10.55;98.52
47330;BME280;33060;50.178;7.570;2023-02-17T10:42:48;97605.38;;;10.56;97.93
47330;BME280;33060;50.178;7.570;2023-02-17T10:45:34;97609.91;;;10.68;96.97
47330;BME280;33060;50.178;7.570;2023-02-17T10:49:02;97602.00;;;10.68;97.04
47330;BME280;33060;50.178;7.570;2023-02-17T10:50:58;97614.25;;;10.83;95.10
47330;BME280;33060;50.178;7.570;2023-02-17T10:53:38;97616.69;;;10.72;96.29
47330;BME280;33060;50.178;7.570;2023-02-17T10:56:23;97608.59;;;10.75;96.04
47330;BME280;33060;50.178;7.570;2023-02-17T10:59:01;97609.44;;;11.04;94.71
47330;BME280;33060;50.178;7.570;2023-02-17T11:01:32;97609.31;;;11.06;94.58
47330;BME280;33060;50.178;7.570;2023-02-17T11:04:02;97601.34;;;11.20;92.90
47330;BME280;33060;50.178;7.570;2023-02-17T11:06:30;97600.63;;;11.45;91.91
47330;BME280;33060;50.178;7.570;2023-02-17T11:08:59;97600.84;;;11.69;89.63
47330;BME280;33060;50.178;7.570;2023-02-17T11:11:33;97587.19;;;11.35;90.75
47330;BME280;33060;50.178;7.570;2023-02-17T11:14:18;97600.81;;;11.15;92.19
47330;BME280;33060;50.178;7.570;2023-02-17T11:16:51;97596.44;;;11.28;92.07
47330;BME280;33060;50.178;7.570;2023-02-17T11:19:31;97585.81;;;11.69;89.68
47330;BME280;33060;50.178;7.570;2023-02-17T11:22:03;97595.66;;;11.40;91.08
47330;BME280;33060;50.178;7.570;2023-02-17T11:24:32;97602.78;;;11.25;91.75
47330;BME280;33060;50.178;7.570;2023-02-17T11:27:07;97595.06;;;11.49;90.61
47330;BME280;33060;50.178;7.570;2023-02-17T11:29:34;97592.56;;;11.33;90.90
47330;BME280;33060;50.178;7.570;2023-02-17T11:32:10;97599.66;;;11.19;92.44
47330;BME280;33060;50.178;7.570;2023-02-17T11:34:40;97600.16;;;11.11;93.19
47330;BME280;33060;50.178;7.570;2023-02-17T11:39:41;97596.41;;;11.01;93.66
47330;BME280;33060;50.178;7.570;2023-02-17T11:42:36;97585.09;;;10.99;94.00
47330;BME280;33060;50.178;7.570;2023-02-17T11:45:16;97591.22;;;11.14;93.42
47330;BME280;33060;50.178;7.570;2023-02-17T11:50:22;97586.47;;;11.19;92.87
47330;BME280;33060;50.178;7.570;2023-02-17T11:56:03;97590.16;;;11.02;93.91
47330;BME280;33060;50.178;7.570;2023-02-17T12:04:29;97577.22;;;11.12;93.36
47330;BME280;33060;50.178;7.570;2023-02-17T12:12:56;97555.03;;;11.28;92.18
47330;BME280;33060;50.178;7.570;2023-02-17T12:21:00;97551.72;;;11.39;91.57
47330;BME280;33060;50.178;7.570;2023-02-17T12:26:46;97553.16;;;11.30;91.79
47330;BME280;33060;50.178;7.570;2023-02-17T12:32:52;97557.72;;;11.41;91.72
47330;BME280;33060;50.178;7.570;2023-02-17T12:35:33;97549.50;;;11.46;91.57
47330;BME280;33060;50.178;7.570;2023-02-17T12:38:14;97536.88;;;11.37;92.15
47330;BME280;33060;50.178;7.570;2023-02-17T12:41:01;97532.28;;;11.40;91.81
47330;BME280;33060;50.178;7.570;2023-02-17T12:43:39;97526.72;;;11.57;90.77
47330;BME280;33060;50.178;7.570;2023-02-17T12:46:14;97527.66;;;11.56;90.77
47330;BME280;33060;50.178;7.570;2023-02-17T12:48:55;97527.97;;;11.52;90.71
47330;BME280;33060;50.178;7.570;2023-02-17T12:56:54;97514.97;;;11.49;90.97
47330;BME280;33060;50.178;7.570;2023-02-17T12:59:44;97507.38;;;11.57;90.43
47330;BME280;33060;50.178;7.570;2023-02-17T13:02:14;97491.72;;;11.54;90.65
47330;BME280;33060;50.178;7.570;2023-02-17T13:04:43;97494.34;;;11.54;90.95
47330;BME280;33060;50.178;7.570;2023-02-17T13:09:50;97492.03;;;11.62;89.86
47330;BME280;33060;50.178;7.570;2023-02-17T13:15:03;97489.41;;;11.49;89.97
47330;BME280;33060;50.178;7.570;2023-02-17T13:20:22;97502.59;;;11.49;90.17
47330;BME280;33060;50.178;7.570;2023-02-17T13:22:50;97484.00;;;11.51;90.46
47330;BME280;33060;50.178;7.570;2023-02-17T13:25:30;97495.19;;;11.42;90.75
47330;BME280;33060;50.178;7.570;2023-02-17T13:28:01;97497.72;;;11.43;90.81
47330;BME280;33060;50.178;7.570;2023-02-17T13:30:40;97500.56;;;11.40;90.85
47330;BME280;33060;50.178;7.570;2023-02-17T13:35:46;97506.16;;;11.36;91.29
47330;BME280;33060;50.178;7.570;2023-02-17T13:38:28;97506.47;;;11.31;91.72
47330;BME280;33060;50.178;7.570;2023-02-17T13:41:01;97510.97;;;11.29;92.11
47330;BME280;33060;50.178;7.570;2023-02-17T13:43:30;97508.16;;;11.32;92.36
47330;BME280;33060;50.178;7.570;2023-02-17T13:45:59;97494.94;;;11.32;92.50
47330;BME280;33060;50.178;7.570;2023-02-17T13:48:32;97496.63;;;11.33;92.36
47330;BME280;33060;50.178;7.570;2023-02-17T13:51:01;97494.09;;;11.31;92.53
47330;BME280;33060;50.178;7.570;2023-02-17T13:56:10;97478.38;;;11.30;92.43
47330;BME280;33060;50.178;7.570;2023-02-17T13:58:40;97470.22;;;11.33;92.51
47330;BME280;33060;50.178;7.570;2023-02-17T14:01:14;97490.91;;;11.26;92.76
47330;BME280;33060;50.178;7.570;2023-02-17T14:03:46;97482.69;;;11.31;92.69
47330;BME280;33060;50.178;7.570;2023-02-17T14:06:29;97482.69;;;11.31;92.75
47330;BME280;33060;50.178;7.570;2023-02-17T14:08:57;97473.81;;;11.32;92.65
47330;BME280;33060;50.178;7.570;2023-02-17T14:11:26;97485.69;;;11.39;92.71
47330;BME280;33060;50.178;7.570;2023-02-17T14:13:55;97474.91;;;11.42;92.32
47330;BME280;33060;50.178;7.570;2023-02-17T14:19:00;97488.09;;;11.42;92.89
47330;BME280;33060;50.178;7.570;2023-02-17T14:21:28;97480.69;;;11.35;93.10
47330;BME280;33060;50.178;7.570;2023-02-17T14:23:56;97487.41;;;11.26;94.17
47330;BME280;33060;50.178;7.570;2023-02-17T14:26:30;97497.78;;;11.29;93.81
47330;BME280;33060;50.178;7.570;2023-02-17T14:29:00;97480.91;;;11.31;93.74
47330;BME280;33060;50.178;7.570;2023-02-17T14:31:27;97480.56;;;11.23;94.51
47330;BME280;33060;50.178;7.570;2023-02-17T14:34:00;97500.56;;;11.40;92.71
47330;BME280;33060;50.178;7.570;2023-02-17T14:39:00;97494.00;;;11.33;94.09
47330;BME280;33060;50.178;7.570;2023-02-17T14:41:27;97494.63;;;11.37;93.56
47330;BME280;33060;50.178;7.570;2023-02-17T14:43:54;97486.28;;;11.30;94.14
47330;BME280;33060;50.178;7.570;2023-02-17T14:46:21;97492.47;;;11.29;94.25
47330;BME280;33060;50.178;7.570;2023-02-17T14:48:50;97479.03;;;11.19;94.66